createdAt,value
2018-08-18T00:01:30.868Z,15.21
2018-08-18T00:04:00.196Z,15.15
2018-08-18T00:06:28.613Z,15.05
2018-08-18T00:08:57.015Z,14.98
2018-08-18T00:11:25.489Z,14.91
2018-08-18T00:13:55.991Z,14.89
2018-08-18T00:16:29.070Z,14.85
2018-08-18T00:18:59.416Z,14.84
2018-08-18T00:21:30.620Z,14.81
2018-08-18T00:24:13.737Z,14.87
2018-08-18T00:26:42.125Z,14.92
2018-08-18T00:29:11.139Z,14.95
2018-08-18T00:31:41.471Z,14.93
2018-08-18T00:34:09.926Z,14.91
2018-08-18T00:36:38.322Z,14.89
2018-08-18T00:39:10.919Z,14.80
2018-08-18T00:41:39.624Z,14.73
2018-08-18T00:44:09.443Z,14.67
2018-08-18T00:46:37.862Z,14.58
2018-08-18T00:49:07.203Z,14.55
2018-08-18T00:51:37.868Z,14.63
2018-08-18T00:56:38.664Z,14.68
2018-08-18T00:59:07.100Z,14.63
2018-08-18T01:01:35.612Z,14.62
2018-08-18T01:04:08.375Z,14.63
2018-08-18T01:06:38.537Z,14.63
2018-08-18T01:09:11.962Z,14.50
2018-08-18T01:11:40.565Z,14.50
2018-08-18T01:14:15.337Z,14.51
2018-08-18T01:16:48.824Z,14.49
2018-08-18T01:19:18.040Z,14.19
2018-08-18T01:21:51.493Z,14.03
2018-08-18T01:24:20.710Z,14.17
2018-08-18T01:26:49.572Z,14.22
2018-08-18T01:29:19.050Z,14.29
2018-08-18T01:31:47.971Z,14.30
2018-08-18T01:34:16.440Z,14.37
2018-08-18T01:36:44.849Z,14.36
2018-08-18T01:39:14.433Z,14.40
2018-08-18T01:41:42.960Z,14.40
2018-08-18T01:44:13.665Z,14.31
2018-08-18T01:46:42.654Z,14.21
2018-08-18T01:49:33.639Z,14.23
2018-08-18T01:52:04.377Z,14.23
2018-08-18T01:54:33.187Z,14.18
2018-08-18T01:57:06.617Z,14.13
2018-08-18T01:59:35.262Z,14.12
2018-08-18T02:02:03.808Z,14.05
2018-08-18T02:04:32.228Z,14.05
2018-08-18T02:07:15.489Z,14.03
2018-08-18T02:09:44.457Z,14.05
2018-08-18T02:12:12.844Z,14.00
2018-08-18T02:14:41.279Z,13.91
2018-08-18T02:17:36.209Z,13.95
2018-08-18T02:20:07.264Z,14.06
2018-08-18T02:22:35.625Z,14.14
2018-08-18T02:25:04.182Z,14.19
2018-08-18T02:27:32.584Z,14.24
2018-08-18T02:30:13.392Z,14.25
2018-08-18T02:32:41.821Z,14.26
2018-08-18T02:35:10.295Z,14.23
2018-08-18T02:37:38.698Z,14.12
2018-08-18T02:40:16.138Z,14.09
2018-08-18T02:42:44.617Z,14.05
2018-08-18T02:45:13.782Z,13.95
2018-08-18T02:47:42.556Z,13.89
2018-08-18T02:50:12.346Z,13.87
2018-08-18T02:52:40.806Z,13.83
2018-08-18T02:55:10.816Z,13.79
2018-08-18T02:57:40.560Z,13.74
2018-08-18T03:00:25.832Z,13.71
2018-08-18T03:02:54.227Z,13.63
2018-08-18T03:05:22.763Z,13.55
2018-08-18T03:07:52.066Z,13.60
2018-08-18T03:10:25.613Z,13.62
2018-08-18T03:12:58.751Z,13.60
2018-08-18T03:16:07.539Z,13.68
2018-08-18T03:18:43.251Z,13.75
2018-08-18T03:21:11.748Z,13.76
2018-08-18T03:23:50.149Z,13.72
2018-08-18T03:26:21.160Z,13.63
2018-08-18T03:28:51.109Z,13.55
2018-08-18T03:31:19.864Z,13.53
2018-08-18T03:33:48.276Z,13.53
2018-08-18T03:36:26.893Z,13.58
2018-08-18T03:38:56.191Z,13.58
2018-08-18T03:41:25.453Z,13.52
2018-08-18T03:43:54.555Z,13.47
2018-08-18T03:46:23.008Z,13.41
2018-08-18T03:48:51.834Z,13.38
2018-08-18T03:51:20.627Z,13.34
2018-08-18T03:53:49.076Z,13.30
2018-08-18T03:56:17.519Z,13.28
2018-08-18T03:58:50.472Z,13.25
2018-08-18T04:02:00.192Z,13.25
2018-08-18T04:04:32.899Z,13.24
2018-08-18T04:07:01.974Z,13.22
2018-08-18T04:09:31.528Z,13.20
2018-08-18T04:12:01.710Z,13.20
2018-08-18T04:14:35.376Z,13.16
2018-08-18T04:17:03.902Z,13.07
2018-08-18T04:19:32.332Z,13.07
2018-08-18T04:22:00.743Z,13.08
2018-08-18T04:24:36.366Z,13.12
2018-08-18T04:27:04.871Z,13.09
2018-08-18T04:29:33.256Z,13.07
2018-08-18T04:32:02.255Z,13.06
2018-08-18T04:34:30.741Z,13.05
2018-08-18T04:37:00.300Z,13.03
2018-08-18T04:39:28.702Z,13.01
2018-08-18T04:41:57.180Z,12.97
2018-08-18T04:44:25.639Z,12.90
2018-08-18T04:46:54.095Z,12.97
2018-08-18T04:49:22.526Z,13.02
2018-08-18T04:51:50.955Z,13.07
2018-08-18T04:54:19.800Z,13.15
2018-08-18T04:56:48.247Z,13.21
2018-08-18T04:59:16.640Z,13.25
2018-08-18T05:01:45.061Z,13.24
2018-08-18T05:04:13.860Z,13.20
2018-08-18T05:06:43.547Z,13.17
2018-08-18T05:09:13.761Z,13.14
2018-08-18T05:11:42.251Z,13.12
2018-08-18T05:14:10.602Z,13.09
2018-08-18T05:16:38.952Z,13.11
2018-08-18T05:19:08.317Z,13.06
2018-08-18T05:21:36.643Z,13.06
2018-08-18T05:24:22.173Z,13.09
2018-08-18T05:26:51.441Z,13.01
2018-08-18T05:29:19.907Z,12.99
2018-08-18T05:31:48.463Z,13.00
2018-08-18T05:34:16.933Z,13.01
2018-08-18T05:36:45.699Z,13.01
2018-08-18T05:39:14.185Z,13.06
2018-08-18T05:41:42.632Z,13.15
2018-08-18T05:44:11.110Z,13.20
2018-08-18T05:46:39.523Z,13.25
2018-08-18T05:49:12.987Z,13.29
2018-08-18T05:51:44.892Z,13.34
2018-08-18T05:54:14.356Z,13.40
2018-08-18T05:56:44.253Z,13.40
2018-08-18T05:59:12.672Z,13.41
2018-08-18T06:01:41.816Z,13.45
2018-08-18T06:04:13.563Z,13.52
2018-08-18T06:06:42.729Z,13.53
2018-08-18T06:09:13.486Z,13.58
2018-08-18T06:11:42.131Z,13.61
2018-08-18T06:14:11.700Z,13.65
2018-08-18T06:16:40.477Z,13.69
2018-08-18T06:19:09.020Z,13.75
2018-08-18T06:21:37.478Z,13.80
2018-08-18T06:24:06.024Z,13.86
2018-08-18T06:26:34.573Z,13.92
2018-08-18T06:29:03.079Z,13.98
2018-08-18T06:31:32.061Z,14.04
2018-08-18T06:34:00.500Z,13.90
2018-08-18T06:36:28.892Z,14.14
2018-08-18T06:38:57.288Z,14.18
2018-08-18T06:41:25.845Z,14.22
2018-08-18T06:43:54.247Z,14.25
2018-08-18T06:46:22.691Z,14.30
2018-08-18T06:48:51.077Z,14.34
2018-08-18T06:51:19.536Z,14.39
2018-08-18T06:53:48.959Z,14.39
2018-08-18T06:56:18.381Z,14.41
2018-08-18T06:58:46.880Z,14.46
2018-08-18T07:01:15.344Z,14.47
2018-08-18T07:03:45.317Z,14.52
2018-08-18T07:06:15.177Z,14.56
2018-08-18T07:08:48.928Z,14.59
2018-08-18T07:11:17.392Z,14.63
2018-08-18T07:13:46.386Z,14.67
2018-08-18T07:16:14.849Z,14.71
2018-08-18T07:18:43.294Z,14.75
2018-08-18T07:21:11.733Z,14.78
2018-08-18T07:23:40.210Z,14.81
2018-08-18T07:26:09.991Z,14.82
2018-08-18T07:28:39.203Z,14.84
2018-08-18T07:31:07.648Z,14.87
2018-08-18T07:33:36.166Z,14.90
2018-08-18T07:36:04.640Z,14.72
2018-08-18T07:38:33.100Z,14.99
2018-08-18T07:41:02.497Z,15.01
2018-08-18T07:43:33.066Z,15.04
2018-08-18T07:46:03.019Z,15.08
2018-08-18T07:48:31.774Z,15.11
2018-08-18T07:51:00.192Z,15.16
2018-08-18T07:53:28.634Z,15.25
2018-08-18T07:55:57.057Z,15.31
2018-08-18T07:58:25.903Z,15.33
2018-08-18T08:00:56.963Z,15.38
2018-08-18T08:03:25.452Z,15.43
2018-08-18T08:05:53.905Z,15.47
2018-08-18T08:08:22.347Z,15.53
2018-08-18T08:10:51.230Z,15.54
2018-08-18T08:13:19.652Z,15.54
2018-08-18T08:15:48.109Z,15.58
2018-08-18T08:18:16.558Z,15.70
2018-08-18T08:20:45.314Z,15.73
2018-08-18T08:23:13.820Z,15.74
2018-08-18T08:25:42.301Z,15.75
2018-08-18T08:28:10.744Z,15.73
2018-08-18T08:30:39.176Z,15.78
2018-08-18T08:33:07.685Z,15.84
2018-08-18T08:35:37.888Z,15.88
2018-08-18T08:38:06.551Z,16.02
2018-08-18T08:40:35.219Z,16.15
2018-08-18T08:43:03.735Z,16.28
2018-08-18T08:45:32.276Z,16.40
2018-08-18T08:48:00.688Z,16.49
2018-08-18T08:50:29.157Z,16.46
2018-08-18T08:52:58.100Z,16.40
2018-08-18T08:55:27.890Z,16.53
2018-08-18T08:57:56.352Z,16.58
2018-08-18T09:00:24.799Z,16.77
2018-08-18T09:02:53.867Z,16.19
2018-08-18T09:05:22.399Z,16.80
2018-08-18T09:07:50.845Z,16.70
2018-08-18T09:10:19.352Z,16.72
2018-08-18T09:12:47.732Z,16.99
2018-08-18T09:15:17.316Z,17.13
2018-08-18T09:17:45.850Z,17.24
2018-08-18T09:20:17.466Z,17.12
2018-08-18T09:22:58.452Z,17.00
2018-08-18T09:25:28.049Z,16.98
2018-08-18T09:27:59.670Z,16.94
2018-08-18T09:30:30.191Z,16.98
2018-08-18T09:32:59.284Z,17.12
2018-08-18T09:35:27.785Z,17.22
2018-08-18T09:38:01.471Z,17.18
2018-08-18T09:40:32.093Z,17.16
2018-08-18T09:43:04.165Z,17.17
2018-08-18T09:45:32.689Z,17.39
2018-08-18T09:48:01.152Z,17.49
2018-08-18T09:50:29.599Z,17.38
2018-08-18T09:52:58.003Z,17.33
2018-08-18T09:55:26.488Z,17.32
2018-08-18T09:57:54.978Z,17.30
2018-08-18T10:00:27.757Z,17.29
2018-08-18T10:02:56.251Z,17.41
2018-08-18T10:05:24.714Z,17.62
2018-08-18T10:07:53.151Z,17.73
2018-08-18T10:10:21.593Z,17.82
2018-08-18T10:12:50.045Z,18.36
2018-08-18T10:15:18.503Z,18.39
2018-08-18T10:17:46.928Z,18.41
2018-08-18T10:20:15.409Z,18.29
2018-08-18T10:22:45.332Z,18.33
2018-08-18T10:25:13.776Z,18.54
2018-08-18T10:27:42.156Z,18.43
2018-08-18T10:30:10.763Z,18.31
2018-08-18T10:32:55.694Z,18.25
2018-08-18T10:35:32.444Z,18.49
2018-08-18T10:38:02.472Z,18.76
2018-08-18T10:40:30.981Z,18.88
2018-08-18T10:42:59.473Z,18.95
2018-08-18T10:45:27.889Z,18.89
2018-08-18T10:47:56.399Z,18.89
2018-08-18T10:51:35.254Z,18.91
2018-08-18T10:54:03.721Z,19.07
2018-08-18T10:56:32.224Z,19.07
2018-08-18T10:59:13.160Z,19.03
2018-08-18T11:01:56.935Z,19.12
2018-08-18T11:04:25.516Z,19.18
2018-08-18T11:06:53.944Z,19.36
2018-08-18T11:09:22.369Z,19.37
2018-08-18T11:11:50.918Z,19.40
2018-08-18T11:14:19.337Z,19.37
2018-08-18T11:16:48.025Z,19.34
2018-08-18T11:19:16.433Z,19.39
2018-08-18T11:21:45.569Z,19.49
2018-08-18T11:24:13.924Z,19.81
2018-08-18T11:26:42.362Z,19.84
2018-08-18T11:29:17.369Z,19.69
2018-08-18T11:31:46.196Z,19.67
2018-08-18T11:34:16.841Z,19.69
2018-08-18T11:36:59.389Z,19.72
2018-08-18T11:39:28.676Z,19.80
2018-08-18T11:41:58.362Z,19.65
2018-08-18T11:44:26.830Z,19.48
2018-08-18T11:46:55.278Z,19.46
2018-08-18T11:49:23.675Z,19.59
2018-08-18T11:51:52.272Z,19.88
2018-08-18T11:54:20.720Z,19.84
2018-08-18T11:56:53.155Z,20.04
2018-08-18T11:59:21.581Z,20.05
2018-08-18T12:01:51.801Z,20.09
2018-08-18T12:04:21.367Z,20.07
2018-08-18T12:06:54.866Z,20.20
2018-08-18T12:09:23.662Z,20.30
2018-08-18T12:11:52.421Z,20.26
2018-08-18T12:14:21.439Z,20.44
2018-08-18T12:16:49.952Z,20.48
2018-08-18T12:19:18.452Z,20.57
2018-08-18T12:21:47.596Z,20.67
2018-08-18T12:24:17.820Z,20.82
2018-08-18T12:26:58.422Z,20.92
2018-08-18T12:29:27.855Z,21.04
2018-08-18T12:31:56.268Z,21.29
2018-08-18T12:34:24.896Z,21.43
2018-08-18T12:36:53.433Z,21.65
2018-08-18T12:39:21.760Z,21.96
2018-08-18T12:41:50.213Z,22.08
2018-08-18T12:44:22.780Z,22.20
2018-08-18T12:46:51.241Z,22.37
2018-08-18T12:49:20.314Z,22.51
2018-08-18T12:51:48.789Z,22.73
2018-08-18T12:54:17.187Z,22.89
2018-08-18T12:56:45.749Z,23.15
2018-08-18T12:59:14.537Z,23.14
2018-08-18T13:01:48.561Z,23.18
2018-08-18T13:04:19.622Z,23.31
2018-08-18T13:06:49.665Z,23.29
2018-08-18T13:09:20.446Z,23.28
2018-08-18T13:11:50.650Z,23.50
2018-08-18T13:14:25.422Z,23.65
2018-08-18T13:16:53.957Z,23.65
2018-08-18T13:19:32.446Z,23.57
2018-08-18T13:22:00.919Z,23.55
2018-08-18T13:24:31.278Z,23.61
2018-08-18T13:27:00.525Z,23.76
2018-08-18T13:29:28.913Z,23.67
2018-08-18T13:31:57.401Z,23.89
2018-08-18T13:34:25.905Z,24.08
2018-08-18T13:36:54.349Z,23.99
2018-08-18T13:39:22.772Z,23.91
2018-08-18T13:41:51.193Z,23.98
2018-08-18T13:44:26.215Z,24.15
2018-08-18T13:46:54.681Z,24.15
2018-08-18T13:49:26.833Z,24.11
2018-08-18T13:51:55.270Z,23.98
2018-08-18T13:54:23.723Z,23.93
2018-08-18T13:56:52.219Z,23.95
2018-08-18T13:59:41.727Z,23.98
2018-08-18T14:02:10.582Z,23.83
2018-08-18T14:04:44.146Z,23.79
2018-08-18T14:07:13.139Z,23.78
2018-08-18T14:09:43.717Z,23.77
2018-08-18T14:12:15.248Z,23.76
2018-08-18T14:14:43.995Z,23.62
2018-08-18T14:17:13.298Z,23.52
2018-08-18T14:19:41.917Z,23.56
2018-08-18T14:22:11.047Z,23.67
2018-08-18T14:24:41.049Z,23.68
2018-08-18T14:27:12.709Z,23.69
2018-08-18T14:29:41.195Z,23.56
2018-08-18T14:32:15.172Z,23.54
2018-08-18T14:34:49.219Z,23.40
2018-08-18T14:37:17.624Z,23.20
2018-08-18T14:39:46.032Z,23.05
2018-08-18T14:42:14.500Z,22.99
2018-08-18T14:44:43.049Z,22.98
2018-08-18T14:47:12.105Z,22.98
2018-08-18T14:49:40.520Z,23.14
2018-08-18T14:52:08.904Z,23.17
2018-08-18T14:54:39.668Z,23.13
2018-08-18T14:57:08.140Z,23.03
2018-08-18T14:59:38.062Z,23.01
2018-08-18T15:02:07.927Z,23.03
2018-08-18T15:04:36.581Z,23.09
2018-08-18T15:07:05.136Z,23.15
2018-08-18T15:09:41.692Z,23.14
2018-08-18T15:12:10.275Z,23.11
2018-08-18T15:14:38.891Z,23.06
2018-08-18T15:17:07.430Z,23.04
2018-08-18T15:19:35.876Z,23.14
2018-08-18T15:22:07.013Z,23.10
2018-08-18T15:24:36.392Z,23.09
2018-08-18T15:27:04.906Z,23.05
2018-08-18T15:29:33.328Z,23.00
2018-08-18T15:32:01.760Z,22.94
2018-08-18T15:34:30.198Z,22.88
2018-08-18T15:36:58.680Z,22.85
2018-08-18T15:39:28.673Z,22.91
2018-08-18T15:41:58.607Z,22.95
2018-08-18T15:44:27.051Z,22.96
2018-08-18T15:46:55.504Z,23.00
2018-08-18T15:49:23.934Z,22.97
2018-08-18T15:51:52.692Z,22.97
2018-08-18T15:54:23.762Z,22.99
2018-08-18T15:56:52.093Z,23.06
2018-08-18T15:59:20.550Z,23.18
2018-08-18T16:01:49.086Z,23.26
2018-08-18T16:04:17.529Z,23.28
2018-08-18T16:06:46.277Z,23.21
2018-08-18T16:09:14.789Z,23.31
2018-08-18T16:11:43.185Z,23.33
2018-08-18T16:14:11.603Z,23.39
2018-08-18T16:16:55.786Z,23.41
2018-08-18T16:19:24.627Z,23.43
2018-08-18T16:21:53.104Z,23.48
2018-08-18T16:24:46.256Z,23.54
2018-08-18T16:27:14.883Z,23.51
2018-08-18T16:29:43.325Z,23.51
2018-08-18T16:32:27.458Z,23.55
2018-08-18T16:35:02.528Z,23.52
2018-08-18T16:37:31.549Z,23.41
2018-08-18T16:39:59.968Z,23.32
2018-08-18T16:42:28.495Z,23.33
2018-08-18T16:44:56.942Z,23.34
2018-08-18T16:47:25.447Z,23.33
2018-08-18T16:49:53.843Z,23.33
2018-08-18T16:52:22.303Z,23.38
2018-08-18T16:54:50.688Z,23.43
2018-08-18T16:57:19.073Z,23.37
2018-08-18T16:59:47.521Z,23.39
2018-08-18T17:02:30.049Z,23.41
2018-08-18T17:04:58.724Z,23.34
2018-08-18T17:07:27.555Z,23.35
2018-08-18T17:09:56.061Z,23.37
2018-08-18T17:12:28.327Z,23.39
2018-08-18T17:14:57.731Z,23.30
2018-08-18T17:17:26.716Z,23.29
2018-08-18T17:19:55.243Z,23.26
2018-08-18T17:22:23.668Z,23.27
2018-08-18T17:24:52.196Z,23.20
2018-08-18T17:27:20.596Z,23.22
2018-08-18T17:29:51.588Z,23.24
2018-08-18T17:32:20.028Z,23.15
2018-08-18T17:34:48.424Z,23.06
2018-08-18T17:37:16.872Z,22.97
2018-08-18T17:39:45.367Z,22.89
2018-08-18T17:42:13.787Z,22.80
2018-08-18T17:44:42.345Z,22.69
2018-08-18T17:47:11.504Z,22.60
2018-08-18T17:49:46.299Z,22.52
2018-08-18T17:52:15.500Z,22.42
2018-08-18T17:54:49.567Z,22.37
2018-08-18T17:57:18.005Z,22.31
2018-08-18T17:59:46.379Z,22.25
2018-08-18T18:02:16.280Z,22.22
2018-08-18T18:04:45.589Z,22.09
2018-08-18T18:07:14.097Z,22.08
2018-08-18T18:09:42.560Z,22.03
2018-08-18T18:12:21.972Z,21.98
2018-08-18T18:14:50.429Z,21.90
2018-08-18T18:17:19.853Z,21.83
2018-08-18T18:19:48.288Z,21.75
2018-08-18T18:22:16.749Z,21.68
2018-08-18T18:24:45.326Z,21.60
2018-08-18T18:27:13.755Z,21.56
2018-08-18T18:29:44.074Z,21.53
2018-08-18T18:32:12.626Z,21.47
2018-08-18T18:34:41.371Z,21.43
2018-08-18T18:37:09.831Z,21.36
2018-08-18T18:39:56.877Z,21.24
2018-08-18T18:42:25.982Z,21.13
2018-08-18T18:44:54.549Z,21.07
2018-08-18T18:47:22.991Z,21.01
2018-08-18T18:49:51.440Z,20.97
2018-08-18T18:52:20.281Z,20.96
2018-08-18T18:54:48.980Z,20.95
2018-08-18T18:57:17.524Z,20.87
2018-08-18T18:59:51.811Z,20.83
2018-08-18T19:02:21.463Z,20.79
2018-08-18T19:04:49.888Z,20.75
2018-08-18T19:07:18.409Z,20.73
2018-08-18T19:09:48.587Z,20.68
2018-08-18T19:12:17.135Z,20.68
2018-08-18T19:14:45.523Z,20.62
2018-08-18T19:17:13.942Z,20.58
2018-08-18T19:19:42.375Z,20.51
2018-08-18T19:22:10.910Z,20.46
2018-08-18T19:24:39.288Z,20.43
2018-08-18T19:27:07.803Z,20.39
2018-08-18T19:29:36.203Z,20.34
2018-08-18T19:32:04.675Z,20.33
2018-08-18T19:34:33.101Z,20.31
2018-08-18T19:37:08.308Z,20.30
2018-08-18T19:39:37.488Z,20.26
2018-08-18T19:42:11.867Z,20.21
2018-08-18T19:44:43.033Z,20.22
2018-08-18T19:47:11.542Z,20.23
2018-08-18T19:49:44.281Z,20.25
2018-08-18T19:52:13.835Z,20.22
2018-08-18T19:54:50.744Z,20.17
2018-08-18T19:57:26.154Z,20.11
2018-08-18T20:00:00.204Z,19.99
2018-08-18T20:02:37.543Z,19.96
2018-08-18T20:05:06.632Z,19.86
2018-08-18T20:07:35.133Z,19.81
2018-08-18T20:10:03.616Z,19.79
2018-08-18T20:12:32.043Z,19.80
2018-08-18T20:15:01.043Z,19.72
2018-08-18T20:17:29.631Z,19.67
2018-08-18T20:19:58.078Z,19.66
2018-08-18T20:22:26.612Z,19.62
2018-08-18T20:24:55.037Z,19.57
2018-08-18T20:27:23.619Z,19.56
2018-08-18T20:29:52.104Z,19.53
2018-08-18T20:32:20.881Z,19.43
2018-08-18T20:34:49.268Z,19.43
2018-08-18T20:37:17.711Z,19.40
2018-08-18T20:39:46.190Z,19.32
2018-08-18T20:42:14.956Z,19.26
2018-08-18T20:44:43.394Z,19.22
2018-08-18T20:47:11.852Z,19.18
2018-08-18T20:49:40.276Z,19.14
2018-08-18T20:52:09.651Z,19.11
2018-08-18T20:54:38.170Z,19.05
2018-08-18T20:57:06.654Z,19.02
2018-08-18T20:59:35.091Z,18.97
2018-08-18T21:02:03.633Z,18.91
2018-08-18T21:04:32.047Z,18.92
2018-08-18T21:07:00.472Z,18.88
2018-08-18T21:09:30.401Z,18.83
2018-08-18T21:11:58.820Z,18.82
2018-08-18T21:14:29.925Z,18.79
2018-08-18T21:16:58.544Z,18.75
2018-08-18T21:19:27.488Z,18.70
2018-08-18T21:21:56.611Z,18.69
2018-08-18T21:24:25.032Z,18.75
2018-08-18T21:26:53.477Z,18.75
2018-08-18T21:29:24.289Z,18.71
2018-08-18T21:31:52.755Z,18.59
2018-08-18T21:34:21.263Z,18.51
2018-08-18T21:36:49.705Z,18.45
2018-08-18T21:39:18.141Z,18.43
2018-08-18T21:41:47.692Z,18.43
2018-08-18T21:44:16.307Z,18.42
2018-08-18T21:46:44.966Z,18.34
2018-08-18T21:49:13.680Z,18.33
2018-08-18T21:51:42.122Z,18.32
2018-08-18T21:54:10.631Z,18.30
2018-08-18T21:56:42.434Z,18.28
2018-08-18T21:59:14.029Z,18.24
2018-08-18T22:01:42.628Z,18.25
2018-08-18T22:04:11.901Z,18.24
2018-08-18T22:06:40.483Z,18.23
2018-08-18T22:09:20.171Z,18.13
2018-08-18T22:11:48.616Z,18.08
2018-08-18T22:14:18.003Z,18.03
2018-08-18T22:16:54.621Z,17.97
2018-08-18T22:19:23.244Z,17.94
2018-08-18T22:21:51.724Z,17.94
2018-08-18T22:24:20.266Z,17.95
2018-08-18T22:26:48.932Z,17.97
2018-08-18T22:29:17.413Z,17.97
2018-08-18T22:31:45.843Z,17.92
2018-08-18T22:34:14.242Z,17.81
2018-08-18T22:36:42.763Z,17.69
2018-08-18T22:39:12.050Z,17.73
2018-08-18T22:41:44.293Z,17.67
2018-08-18T22:44:12.711Z,17.62
2018-08-18T22:46:41.120Z,17.52
2018-08-18T22:49:09.583Z,17.53
2018-08-18T22:51:38.407Z,17.53
2018-08-18T22:54:06.901Z,17.51
2018-08-18T22:56:35.340Z,17.48
2018-08-18T22:59:05.387Z,17.42
2018-08-18T23:01:35.575Z,17.43
2018-08-18T23:04:05.075Z,17.43
2018-08-18T23:06:36.636Z,17.35
2018-08-18T23:09:06.690Z,17.31
2018-08-18T23:11:35.876Z,17.28
2018-08-18T23:14:04.926Z,17.24
2018-08-18T23:16:33.399Z,17.22
2018-08-18T23:19:01.888Z,17.18
2018-08-18T23:21:30.878Z,17.22
2018-08-18T23:24:01.768Z,17.24
2018-08-18T23:26:30.197Z,17.22
2018-08-18T23:28:58.645Z,17.21
2018-08-18T23:31:27.072Z,17.13
2018-08-18T23:33:55.514Z,17.11
2018-08-18T23:36:24.083Z,17.07
2018-08-18T23:38:58.424Z,17.00
2018-08-18T23:41:26.926Z,16.94
2018-08-18T23:43:55.804Z,16.99
2018-08-18T23:46:24.499Z,16.90
2018-08-18T23:48:53.372Z,16.90
2018-08-18T23:51:26.989Z,16.86
2018-08-18T23:53:55.424Z,16.88
2018-08-18T23:56:27.564Z,16.86
2018-08-18T23:58:57.550Z,16.82
